Saint Cloud, Minnesota
Current Conditions -  °F | °C
As of 10:18 AM on Sunday 21 Dec 2014 (Local Time) from KSTC Reporting Station
Moderate Fog Moderate Fog  
Wind Chill: -4°   Ceiling: 200
Heat Index:   Visibility: 0.5mi
Dew Point:   Wind: 12mph
Humidity: 92%   Direction: 140°SE
Pressure: 29.82"   Gusts: NA
Location:  45.55°N, 94.06°W
Report Text: KSTC 211618Z 14010KT 1/2SM FG VV002 01/00 A2982 RMK AO2 T00110000
Loading
Personal Weather Stations






























Interactive Weather Map New forecast layout! Learn more

10-Day Weather Forecast

Advertisements
Track Severe Weather on mobile